createdAt,value
2018-08-27T00:00:29.502Z,0
2018-08-27T00:01:29.755Z,0
2018-08-27T00:02:30.018Z,0
2018-08-27T00:03:29.755Z,0
2018-08-27T00:04:29.492Z,0
2018-08-27T00:05:29.829Z,0
2018-08-27T00:06:29.746Z,0
2018-08-27T00:07:29.484Z,0
2018-08-27T00:08:29.486Z,0
2018-08-27T00:09:29.991Z,0
2018-08-27T00:10:30.034Z,0
2018-08-27T00:11:29.730Z,0
2018-08-27T00:12:29.727Z,0
2018-08-27T00:13:29.722Z,0
2018-08-27T00:14:29.746Z,0
2018-08-27T00:15:29.473Z,0
2018-08-27T00:16:29.724Z,0
2018-08-27T00:17:29.517Z,0
2018-08-27T00:18:29.967Z,0
2018-08-27T00:19:30.000Z,0
2018-08-27T00:20:29.715Z,0
2018-08-27T00:21:29.699Z,0
2018-08-27T00:22:29.452Z,0
2018-08-27T00:23:29.953Z,0
2018-08-27T00:24:29.703Z,0
2018-08-27T00:25:29.525Z,0
2018-08-27T00:26:29.435Z,0
2018-08-27T00:27:29.688Z,0
2018-08-27T00:28:29.417Z,0
2018-08-27T00:29:29.945Z,0
2018-08-27T00:30:29.701Z,0
2018-08-27T00:31:29.935Z,0
2018-08-27T00:32:29.413Z,0
2018-08-27T00:33:29.428Z,0
2018-08-27T00:34:29.676Z,0
2018-08-27T00:35:29.445Z,0
2018-08-27T00:36:29.945Z,0
2018-08-27T00:37:29.666Z,0
2018-08-27T00:38:29.408Z,0
2018-08-27T00:39:29.945Z,0
2018-08-27T00:40:29.671Z,0
2018-08-27T00:41:29.940Z,0
2018-08-27T00:42:29.650Z,0
2018-08-27T00:43:29.915Z,0
2018-08-27T00:44:29.660Z,0
2018-08-27T00:45:29.908Z,0
2018-08-27T00:46:29.653Z,0
2018-08-27T00:47:29.657Z,0
2018-08-27T00:48:29.657Z,0
2018-08-27T00:49:29.403Z,0
2018-08-27T00:50:29.635Z,0
2018-08-27T00:51:29.122Z,0
2018-08-27T00:52:29.673Z,0
2018-08-27T00:53:29.655Z,0
2018-08-27T00:54:29.655Z,0
2018-08-27T00:55:29.687Z,0
2018-08-27T00:56:29.624Z,0
2018-08-27T00:57:29.103Z,0
2018-08-27T00:58:29.365Z,0
2018-08-27T00:59:29.370Z,0
2018-08-27T01:00:29.626Z,0
2018-08-27T01:01:29.353Z,0
2018-08-27T01:02:29.355Z,0
2018-08-27T01:03:29.867Z,0
2018-08-27T01:04:29.883Z,0
2018-08-27T01:05:29.608Z,0
2018-08-27T01:06:29.343Z,0
2018-08-27T01:07:29.360Z,0
2018-08-27T01:08:29.606Z,0
2018-08-27T01:09:29.359Z,0
2018-08-27T01:10:29.366Z,0
2018-08-27T01:11:29.088Z,0
2018-08-27T01:12:29.600Z,0
2018-08-27T01:13:29.602Z,0
2018-08-27T01:14:29.857Z,0
2018-08-27T01:15:29.332Z,0
2018-08-27T01:16:29.324Z,0
2018-08-27T01:17:29.344Z,0
2018-08-27T01:18:29.849Z,0
2018-08-27T01:19:29.320Z,0
2018-08-27T01:20:29.325Z,0
2018-08-27T01:21:29.583Z,0
2018-08-27T01:22:29.977Z,0
2018-08-27T01:23:29.570Z,0
2018-08-27T01:24:29.315Z,0
2018-08-27T01:25:29.573Z,0
2018-08-27T01:26:29.577Z,0
2018-08-27T01:27:29.836Z,0
2018-08-27T01:28:29.835Z,0
2018-08-27T01:29:29.565Z,0
2018-08-27T01:30:29.662Z,0
2018-08-27T01:31:29.570Z,0
2018-08-27T01:32:29.583Z,0
2018-08-27T01:33:29.817Z,0
2018-08-27T01:34:29.556Z,0
2018-08-27T01:35:29.815Z,0
2018-08-27T01:36:29.811Z,0
2018-08-27T01:37:29.810Z,0
2018-08-27T01:38:29.305Z,0
2018-08-27T01:39:29.810Z,0
2018-08-27T01:40:29.792Z,0
2018-08-27T01:41:29.811Z,0
2018-08-27T01:42:29.539Z,0
2018-08-27T01:43:29.543Z,0
2018-08-27T01:44:29.792Z,0
2018-08-27T01:45:29.571Z,0
2018-08-27T01:46:29.814Z,0
2018-08-27T01:47:29.839Z,0
2018-08-27T01:48:29.597Z,0
2018-08-27T01:49:29.530Z,0
2018-08-27T01:50:29.579Z,0
2018-08-27T01:51:29.775Z,0
2018-08-27T01:52:29.774Z,0
2018-08-27T01:53:29.261Z,0
2018-08-27T01:54:29.525Z,0
2018-08-27T01:55:29.531Z,0
2018-08-27T01:56:29.522Z,0
2018-08-27T01:57:29.768Z,0
2018-08-27T01:58:29.792Z,0
2018-08-27T01:59:29.508Z,0
2018-08-27T02:00:29.519Z,0
2018-08-27T02:01:29.252Z,0
2018-08-27T02:02:29.516Z,0
2018-08-27T02:03:29.764Z,0
2018-08-27T02:04:29.496Z,0
2018-08-27T02:05:29.502Z,0
2018-08-27T02:06:29.493Z,0
2018-08-27T02:07:29.246Z,0
2018-08-27T02:08:29.769Z,0
2018-08-27T02:09:29.249Z,0
2018-08-27T02:10:29.475Z,0
2018-08-27T02:11:29.746Z,0
2018-08-27T02:12:29.222Z,0
2018-08-27T02:13:29.477Z,0
2018-08-27T02:14:29.747Z,0
2018-08-27T02:15:29.762Z,0
2018-08-27T02:16:29.226Z,0
2018-08-27T02:17:28.981Z,0
2018-08-27T02:18:29.720Z,0
2018-08-27T02:19:29.218Z,0
2018-08-27T02:20:29.239Z,0
2018-08-27T02:21:29.478Z,0
2018-08-27T02:22:29.731Z,0
2018-08-27T02:23:29.449Z,0
2018-08-27T02:24:29.200Z,0
2018-08-27T02:25:29.251Z,0
2018-08-27T02:26:29.725Z,0
2018-08-27T02:27:29.205Z,0
2018-08-27T02:28:29.721Z,0
2018-08-27T02:29:29.440Z,0
2018-08-27T02:30:29.194Z,0
2018-08-27T02:31:28.930Z,0
2018-08-27T02:32:29.912Z,0
2018-08-27T02:33:29.693Z,0
2018-08-27T02:34:29.714Z,0
2018-08-27T02:35:29.233Z,0
2018-08-27T02:36:29.685Z,0
2018-08-27T02:37:29.678Z,0
2018-08-27T02:38:29.691Z,0
2018-08-27T02:39:29.693Z,0
2018-08-27T02:40:29.692Z,0
2018-08-27T02:41:29.678Z,0
2018-08-27T02:42:29.443Z,0
2018-08-27T02:43:29.414Z,0
2018-08-27T02:44:29.419Z,0
2018-08-27T02:45:29.406Z,0
2018-08-27T02:46:29.442Z,0
2018-08-27T02:47:30.366Z,0
2018-08-27T02:48:29.411Z,0
2018-08-27T02:49:29.414Z,0
2018-08-27T02:50:29.735Z,0
2018-08-27T02:51:29.146Z,0
2018-08-27T02:52:29.145Z,0
2018-08-27T02:53:29.405Z,0
2018-08-27T02:54:29.135Z,0
2018-08-27T02:55:29.393Z,0
2018-08-27T02:56:29.130Z,0
2018-08-27T02:57:29.639Z,0
2018-08-27T02:58:29.127Z,0
2018-08-27T02:59:28.879Z,0
2018-08-27T03:00:29.163Z,0
2018-08-27T03:01:29.393Z,0
2018-08-27T03:02:29.391Z,0
2018-08-27T03:03:28.869Z,0
2018-08-27T03:04:29.115Z,0
2018-08-27T03:05:29.645Z,0
2018-08-27T03:06:29.632Z,0
2018-08-27T03:07:29.111Z,0
2018-08-27T03:08:29.368Z,0
2018-08-27T03:09:29.624Z,0
2018-08-27T03:10:29.117Z,0
2018-08-27T03:11:29.113Z,0
2018-08-27T03:12:29.362Z,0
2018-08-27T03:13:29.093Z,0
2018-08-27T03:14:29.346Z,0
2018-08-27T03:15:29.350Z,0
2018-08-27T03:16:29.349Z,0
2018-08-27T03:17:30.689Z,0
2018-08-27T03:18:29.180Z,0
2018-08-27T03:19:29.338Z,0
2018-08-27T03:20:28.821Z,0
2018-08-27T03:21:29.353Z,0
2018-08-27T03:22:29.105Z,0
2018-08-27T03:23:29.366Z,0
2018-08-27T03:24:29.070Z,0
2018-08-27T03:25:29.359Z,0
2018-08-27T03:26:29.065Z,0
2018-08-27T03:27:29.375Z,0
2018-08-27T03:28:29.074Z,0
2018-08-27T03:29:29.085Z,0
2018-08-27T03:30:29.080Z,0
2018-08-27T03:31:29.351Z,0
2018-08-27T03:32:29.066Z,0
2018-08-27T03:33:29.312Z,0
2018-08-27T03:34:29.550Z,0
2018-08-27T03:35:29.371Z,0
2018-08-27T03:36:29.553Z,0
2018-08-27T03:37:29.296Z,0
2018-08-27T03:38:29.040Z,0
2018-08-27T03:39:28.776Z,0
2018-08-27T03:40:29.577Z,0
2018-08-27T03:41:28.773Z,0
2018-08-27T03:42:29.302Z,0
2018-08-27T03:43:29.294Z,0
2018-08-27T03:44:28.788Z,0
2018-08-27T03:45:29.286Z,0
2018-08-27T03:46:29.538Z,0
2018-08-27T03:47:29.608Z,0
2018-08-27T03:48:29.469Z,0
2018-08-27T03:49:29.274Z,0
2018-08-27T03:50:29.569Z,0
2018-08-27T03:51:29.005Z,0
2018-08-27T03:52:29.289Z,0
2018-08-27T03:53:29.276Z,0
2018-08-27T03:54:28.735Z,0
2018-08-27T03:55:29.310Z,0
2018-08-27T03:56:29.009Z,0
2018-08-27T03:57:29.527Z,0
2018-08-27T03:58:29.262Z,0
2018-08-27T03:59:29.501Z,0
2018-08-27T04:00:29.047Z,0
2018-08-27T04:01:29.247Z,0
2018-08-27T04:02:29.277Z,0
2018-08-27T04:03:29.237Z,0
2018-08-27T04:04:28.988Z,4
2018-08-27T04:05:29.876Z,4
2018-08-27T04:06:29.234Z,4
2018-08-27T04:07:28.995Z,0
2018-08-27T04:08:28.987Z,4
2018-08-27T04:09:29.239Z,4
2018-08-27T04:10:29.486Z,4
2018-08-27T04:11:29.226Z,4
2018-08-27T04:12:29.489Z,8
2018-08-27T04:13:28.979Z,4
2018-08-27T04:14:28.990Z,8
2018-08-27T04:15:29.462Z,12
2018-08-27T04:16:29.215Z,12
2018-08-27T04:17:28.695Z,12
2018-08-27T04:18:29.453Z,12
2018-08-27T04:19:29.233Z,16
2018-08-27T04:20:29.286Z,20
2018-08-27T04:21:28.943Z,24
2018-08-27T04:22:29.472Z,24
2018-08-27T04:23:29.475Z,28
2018-08-27T04:24:28.952Z,32
2018-08-27T04:25:28.989Z,36
2018-08-27T04:26:29.189Z,44
2018-08-27T04:27:28.926Z,48
2018-08-27T04:28:29.444Z,56
2018-08-27T04:29:28.671Z,64
2018-08-27T04:30:28.932Z,68
2018-08-27T04:31:28.656Z,80
2018-08-27T04:32:28.911Z,88
2018-08-27T04:33:28.938Z,96
2018-08-27T04:34:29.412Z,108
2018-08-27T04:35:29.435Z,116
2018-08-27T04:36:29.174Z,132
2018-08-27T04:37:29.436Z,148
2018-08-27T04:38:28.890Z,156
2018-08-27T04:39:28.894Z,172
2018-08-27T04:40:28.933Z,192
2018-08-27T04:41:29.415Z,204
2018-08-27T04:42:29.589Z,216
2018-08-27T04:43:29.415Z,232
2018-08-27T04:44:28.884Z,248
2018-08-27T04:45:29.143Z,272
2018-08-27T04:46:29.416Z,296
2018-08-27T04:47:29.154Z,324
2018-08-27T04:48:29.394Z,344
2018-08-27T04:49:29.168Z,372
2018-08-27T04:50:29.166Z,400
2018-08-27T04:51:29.156Z,428
2018-08-27T04:52:29.396Z,464
2018-08-27T04:53:29.136Z,496
2018-08-27T04:54:28.605Z,532
2018-08-27T04:55:28.871Z,564
2018-08-27T04:56:28.860Z,596
2018-08-27T04:57:29.120Z,628
2018-08-27T04:58:28.597Z,664
2018-08-27T04:59:28.869Z,700
2018-08-27T05:00:29.134Z,740
2018-08-27T05:01:28.856Z,784
2018-08-27T05:02:28.854Z,828
2018-08-27T05:03:30.172Z,880
2018-08-27T05:04:29.107Z,928
2018-08-27T05:05:29.382Z,964
2018-08-27T05:06:28.843Z,996
2018-08-27T05:07:28.904Z,1036
2018-08-27T05:08:28.572Z,1080
2018-08-27T05:09:29.138Z,1124
2018-08-27T05:10:29.181Z,1168
2018-08-27T05:11:28.819Z,1204
2018-08-27T05:12:29.367Z,1252
2018-08-27T05:13:29.081Z,1304
2018-08-27T05:14:29.110Z,1356
2018-08-27T05:15:29.138Z,1412
2018-08-27T05:16:29.097Z,1468
2018-08-27T05:17:28.825Z,1528
2018-08-27T05:18:29.618Z,1596
2018-08-27T05:19:29.068Z,1680
2018-08-27T05:20:29.365Z,1760
2018-08-27T05:21:28.815Z,1836
2018-08-27T05:22:29.318Z,1896
2018-08-27T05:23:28.539Z,1948
2018-08-27T05:24:29.092Z,2000
2018-08-27T05:25:28.888Z,2044
2018-08-27T05:26:29.356Z,2072
2018-08-27T05:27:29.337Z,2100
2018-08-27T05:28:29.318Z,2116
2018-08-27T05:29:29.312Z,2132
2018-08-27T05:30:29.419Z,2144
2018-08-27T05:31:29.455Z,2164
2018-08-27T05:32:28.535Z,2188
2018-08-27T05:33:29.062Z,2208
2018-08-27T05:34:28.782Z,2208
2018-08-27T05:35:28.600Z,2212
2018-08-27T05:36:28.523Z,2236
2018-08-27T05:37:29.300Z,2288
2018-08-27T05:38:28.884Z,2352
2018-08-27T05:39:29.043Z,2556
2018-08-27T05:40:28.764Z,3280
2018-08-27T05:41:29.298Z,2820
2018-08-27T05:42:29.313Z,3488
2018-08-27T05:43:29.284Z,2872
2018-08-27T05:44:28.971Z,3636
2018-08-27T05:45:28.819Z,3888
2018-08-27T05:46:29.019Z,4400
2018-08-27T05:47:28.781Z,3660
2018-08-27T05:48:29.032Z,2428
2018-08-27T05:49:29.033Z,2468
2018-08-27T05:50:28.773Z,2524
2018-08-27T05:51:29.013Z,2576
2018-08-27T05:52:29.409Z,2632
2018-08-27T05:53:28.753Z,2672
2018-08-27T05:54:29.021Z,2712
2018-08-27T05:55:28.494Z,2740
2018-08-27T05:56:28.486Z,2756
2018-08-27T05:57:29.289Z,2768
2018-08-27T05:58:28.749Z,2788
2018-08-27T05:59:28.495Z,2816
2018-08-27T06:00:29.025Z,2824
2018-08-27T06:01:28.854Z,2836
2018-08-27T06:02:28.744Z,2860
2018-08-27T06:03:29.002Z,2892
2018-08-27T06:04:28.802Z,2932
2018-08-27T06:05:29.305Z,2968
2018-08-27T06:06:29.264Z,2996
2018-08-27T06:07:28.993Z,3024
2018-08-27T06:08:29.014Z,3028
2018-08-27T06:09:28.753Z,2988
2018-08-27T06:10:29.108Z,2940
2018-08-27T06:11:28.991Z,2916
2018-08-27T06:12:28.994Z,2904
2018-08-27T06:13:29.245Z,2920
2018-08-27T06:14:28.746Z,2932
2018-08-27T06:15:29.030Z,2936
2018-08-27T06:16:29.371Z,2968
2018-08-27T06:17:28.733Z,3032
2018-08-27T06:18:28.982Z,3120
2018-08-27T06:19:29.785Z,3208
2018-08-27T06:20:28.857Z,3300
2018-08-27T06:21:28.750Z,3428
2018-08-27T06:22:29.460Z,3640
2018-08-27T06:23:28.741Z,3944
2018-08-27T06:24:28.729Z,4264
2018-08-27T06:25:28.769Z,4668
2018-08-27T06:26:28.475Z,6404
2018-08-27T06:27:28.733Z,11140
2018-08-27T06:28:29.241Z,10280
2018-08-27T06:29:29.028Z,6724
2018-08-27T06:30:29.075Z,6900
2018-08-27T06:31:28.729Z,7848
2018-08-27T06:32:28.823Z,7772
2018-08-27T06:33:28.999Z,9528
2018-08-27T06:34:29.009Z,9504
2018-08-27T06:35:29.246Z,11832
2018-08-27T06:36:28.728Z,12532
2018-08-27T06:37:29.007Z,14368
2018-08-27T06:38:28.725Z,13996
2018-08-27T06:39:28.752Z,8344
2018-08-27T06:40:29.017Z,5980
2018-08-27T06:41:29.249Z,5480
2018-08-27T06:42:29.015Z,5344
2018-08-27T06:43:29.003Z,5312
2018-08-27T06:44:29.088Z,5408
2018-08-27T06:45:28.571Z,5688
2018-08-27T06:46:29.392Z,6100
2018-08-27T06:47:29.002Z,6440
2018-08-27T06:48:29.019Z,6700
2018-08-27T06:49:30.259Z,6996
2018-08-27T06:50:28.810Z,7448
2018-08-27T06:51:29.009Z,14080
2018-08-27T06:52:29.022Z,11128
2018-08-27T06:53:28.797Z,8196
2018-08-27T06:54:28.781Z,7476
2018-08-27T06:55:29.117Z,7124
2018-08-27T06:56:29.040Z,6936
2018-08-27T06:57:29.307Z,6844
2018-08-27T06:58:29.044Z,6808
2018-08-27T06:59:29.039Z,6740
2018-08-27T07:00:28.906Z,6688
2018-08-27T07:01:28.794Z,6620
2018-08-27T07:02:29.642Z,6460
2018-08-27T07:03:28.781Z,6308
2018-08-27T07:04:29.090Z,6184
2018-08-27T07:05:29.386Z,6072
2018-08-27T07:06:29.081Z,6008
2018-08-27T07:07:28.816Z,5976
2018-08-27T07:08:28.816Z,6060
2018-08-27T07:09:28.826Z,6260
2018-08-27T07:10:28.810Z,6476
2018-08-27T07:11:28.813Z,6700
2018-08-27T07:12:29.094Z,6872
2018-08-27T07:13:29.093Z,6976
2018-08-27T07:14:29.349Z,7092
2018-08-27T07:15:28.816Z,7288
2018-08-27T07:16:29.082Z,7504
2018-08-27T07:17:29.087Z,7636
2018-08-27T07:18:28.575Z,7764
2018-08-27T07:19:30.964Z,7936
2018-08-27T07:20:29.244Z,8260
2018-08-27T07:21:28.593Z,9192
2018-08-27T07:22:28.591Z,8748
2018-08-27T07:23:28.851Z,9212
2018-08-27T07:24:29.153Z,9028
2018-08-27T07:25:29.131Z,8964
2018-08-27T07:26:28.855Z,9288
2018-08-27T07:27:28.972Z,9400
2018-08-27T07:28:28.609Z,11180
2018-08-27T07:29:28.885Z,8840
2018-08-27T07:30:29.201Z,8112
2018-08-27T07:31:29.383Z,7864
2018-08-27T07:32:28.855Z,7784
2018-08-27T07:33:28.870Z,7816
2018-08-27T07:34:28.871Z,7860
2018-08-27T07:35:29.574Z,7916
2018-08-27T07:36:29.555Z,8044
2018-08-27T07:37:29.141Z,8220
2018-08-27T07:38:28.944Z,8360
2018-08-27T07:39:28.706Z,8468
2018-08-27T07:40:29.156Z,8552
2018-08-27T07:41:28.910Z,8736
2018-08-27T07:42:28.893Z,8892
2018-08-27T07:43:29.630Z,8944
2018-08-27T07:44:29.152Z,8984
2018-08-27T07:45:29.172Z,9076
2018-08-27T07:46:29.179Z,9168
2018-08-27T07:47:29.433Z,8996
2018-08-27T07:48:29.223Z,8916
2018-08-27T07:49:29.430Z,8948
2018-08-27T07:50:28.941Z,9072
2018-08-27T07:51:29.363Z,9244
2018-08-27T07:52:28.924Z,9360
2018-08-27T07:53:29.434Z,9436
2018-08-27T07:54:28.930Z,9540
2018-08-27T07:55:29.193Z,9728
2018-08-27T07:56:29.176Z,9948
2018-08-27T07:57:29.453Z,10172
2018-08-27T07:58:29.084Z,10476
2018-08-27T07:59:29.194Z,12140
2018-08-27T08:00:29.307Z,10632
2018-08-27T08:01:28.942Z,10084
2018-08-27T08:02:29.227Z,9812
2018-08-27T08:03:29.466Z,9712
2018-08-27T08:04:29.253Z,9256
2018-08-27T08:05:29.213Z,9076
2018-08-27T08:06:28.963Z,8892
2018-08-27T08:07:29.140Z,8820
2018-08-27T08:08:29.215Z,8768
2018-08-27T08:09:28.709Z,8708
2018-08-27T08:10:29.029Z,8544
2018-08-27T08:11:29.296Z,8308
2018-08-27T08:12:29.241Z,8060
2018-08-27T08:13:29.305Z,7864
2018-08-27T08:14:29.241Z,7740
2018-08-27T08:15:29.126Z,7648
2018-08-27T08:16:29.267Z,7600
2018-08-27T08:17:29.249Z,7576
2018-08-27T08:18:29.511Z,7552
2018-08-27T08:19:29.535Z,7508
2018-08-27T08:20:29.032Z,7420
2018-08-27T08:21:29.277Z,7368
2018-08-27T08:22:29.035Z,7432
2018-08-27T08:23:29.298Z,7592
2018-08-27T08:24:29.032Z,7816
2018-08-27T08:25:29.546Z,8092
2018-08-27T08:26:29.539Z,8316
2018-08-27T08:27:29.298Z,8456
2018-08-27T08:28:29.300Z,8548
2018-08-27T08:29:29.561Z,8572
2018-08-27T08:30:29.050Z,8412
2018-08-27T08:31:29.561Z,8028
2018-08-27T08:32:28.789Z,7596
2018-08-27T08:33:29.180Z,7248
2018-08-27T08:34:28.828Z,7112
2018-08-27T08:35:29.639Z,7132
2018-08-27T08:36:29.322Z,7204
2018-08-27T08:37:29.335Z,7252
2018-08-27T08:38:29.597Z,7324
2018-08-27T08:39:29.581Z,7492
2018-08-27T08:40:29.376Z,7716
2018-08-27T08:41:29.343Z,7968
2018-08-27T08:42:29.334Z,8204
2018-08-27T08:43:29.606Z,8300
2018-08-27T08:44:29.597Z,8292
2018-08-27T08:45:29.100Z,8232
2018-08-27T08:46:29.601Z,8224
2018-08-27T08:47:29.405Z,8272
2018-08-27T08:48:29.114Z,8360
2018-08-27T08:49:29.098Z,8448
2018-08-27T08:50:29.448Z,8460
2018-08-27T08:51:29.680Z,8540
2018-08-27T08:52:29.132Z,8696
2018-08-27T08:53:29.803Z,8792
2018-08-27T08:54:28.865Z,8892
2018-08-27T08:55:29.744Z,9020
2018-08-27T08:56:29.636Z,9144
2018-08-27T08:57:29.648Z,9308
2018-08-27T08:58:28.871Z,9540
2018-08-27T08:59:29.709Z,9728
2018-08-27T09:00:29.197Z,9840
2018-08-27T09:01:30.234Z,9876
2018-08-27T09:02:29.405Z,9828
2018-08-27T09:03:29.666Z,9760
2018-08-27T09:04:29.436Z,9636
2018-08-27T09:05:29.168Z,9508
2018-08-27T09:06:29.624Z,9424
2018-08-27T09:07:29.668Z,9476
2018-08-27T09:08:29.242Z,9572
2018-08-27T09:09:29.414Z,9540
2018-08-27T09:10:28.915Z,9412
2018-08-27T09:11:29.699Z,9288
2018-08-27T09:12:29.195Z,9308
2018-08-27T09:13:29.171Z,9364
2018-08-27T09:14:29.015Z,9352
2018-08-27T09:15:29.533Z,9296
2018-08-27T09:16:29.487Z,9240
2018-08-27T09:17:29.533Z,9240
2018-08-27T09:18:29.816Z,9300
2018-08-27T09:19:29.462Z,9304
2018-08-27T09:20:29.578Z,9264
2018-08-27T09:21:29.496Z,9240
2018-08-27T09:22:29.557Z,9196
2018-08-27T09:23:29.739Z,9064
2018-08-27T09:24:29.727Z,8920
2018-08-27T09:25:29.799Z,8716
2018-08-27T09:26:29.797Z,8468
2018-08-27T09:27:29.470Z,8276
2018-08-27T09:28:29.479Z,8156
2018-08-27T09:29:29.492Z,8228
2018-08-27T09:30:30.087Z,8376
2018-08-27T09:31:29.780Z,8404
2018-08-27T09:32:29.763Z,8360
2018-08-27T09:33:29.507Z,8436
2018-08-27T09:34:29.244Z,8596
2018-08-27T09:35:29.578Z,8724
2018-08-27T09:36:29.766Z,8840
2018-08-27T09:37:29.660Z,9008
2018-08-27T09:38:28.994Z,9248
2018-08-27T09:39:28.999Z,9460
2018-08-27T09:40:29.527Z,9584
2018-08-27T09:41:29.998Z,9600
2018-08-27T09:42:29.526Z,9424
2018-08-27T09:43:29.522Z,9052
2018-08-27T09:44:29.277Z,8560
2018-08-27T09:45:29.812Z,8128
2018-08-27T09:46:29.290Z,7824
2018-08-27T09:47:29.539Z,7636
2018-08-27T09:48:29.538Z,7556
2018-08-27T09:49:29.560Z,7648
2018-08-27T09:50:29.565Z,7948
2018-08-27T09:51:29.304Z,8424
2018-08-27T09:52:29.293Z,8900
2018-08-27T09:53:29.824Z,9140
2018-08-27T09:54:29.586Z,9196
2018-08-27T09:55:29.573Z,9168
2018-08-27T09:56:29.324Z,9116
2018-08-27T09:57:29.321Z,9012
2018-08-27T09:58:29.862Z,8888
2018-08-27T09:59:29.584Z,8748
2018-08-27T10:00:29.585Z,8500
2018-08-27T10:01:29.598Z,8264
2018-08-27T10:02:29.575Z,8080
2018-08-27T10:03:29.336Z,8008
2018-08-27T10:04:29.596Z,8020
2018-08-27T10:05:29.386Z,8012
2018-08-27T10:06:29.862Z,8060
2018-08-27T10:07:29.598Z,8160
2018-08-27T10:08:29.095Z,8308
2018-08-27T10:09:29.644Z,8408
2018-08-27T10:10:29.694Z,8412
2018-08-27T10:11:29.355Z,8360
2018-08-27T10:12:29.356Z,8276
2018-08-27T10:13:29.109Z,8212
2018-08-27T10:14:29.628Z,8160
2018-08-27T10:15:29.641Z,8112
2018-08-27T10:16:29.900Z,8044
2018-08-27T10:17:29.636Z,8016
2018-08-27T10:18:29.630Z,8048
2018-08-27T10:19:29.640Z,8088
2018-08-27T10:20:29.382Z,8148
2018-08-27T10:21:29.906Z,8252
2018-08-27T10:22:29.709Z,8436
2018-08-27T10:23:29.653Z,8680
2018-08-27T10:24:29.670Z,8972
2018-08-27T10:25:29.951Z,9316
2018-08-27T10:26:29.919Z,9608
2018-08-27T10:27:29.665Z,9944
2018-08-27T10:28:29.517Z,10296
2018-08-27T10:29:29.414Z,10584
2018-08-27T10:30:29.416Z,10824
2018-08-27T10:31:29.681Z,10916
2018-08-27T10:32:29.428Z,10832
2018-08-27T10:33:29.692Z,10664
2018-08-27T10:34:29.438Z,10420
2018-08-27T10:35:29.887Z,10192
2018-08-27T10:36:30.011Z,10076
2018-08-27T10:37:29.434Z,10140
2018-08-27T10:38:29.770Z,10340
2018-08-27T10:39:29.487Z,10524
2018-08-27T10:40:29.772Z,10548
2018-08-27T10:41:29.728Z,10404
2018-08-27T10:42:29.747Z,10264
2018-08-27T10:43:29.478Z,10252
2018-08-27T10:44:29.769Z,10348
2018-08-27T10:45:29.500Z,10476
2018-08-27T10:46:29.749Z,10636
2018-08-27T10:47:29.750Z,10708
2018-08-27T10:48:29.474Z,10784
2018-08-27T10:49:29.233Z,10872
2018-08-27T10:50:31.057Z,10884
2018-08-27T10:51:29.768Z,10980
2018-08-27T10:52:30.039Z,11256
2018-08-27T10:53:30.039Z,11600
2018-08-27T10:54:29.825Z,11836
2018-08-27T10:55:29.874Z,11964
2018-08-27T10:56:30.051Z,11984
2018-08-27T10:57:29.774Z,11980
2018-08-27T10:58:29.768Z,12000
2018-08-27T10:59:29.524Z,12000
2018-08-27T11:00:30.146Z,11944
2018-08-27T11:01:29.554Z,11936
2018-08-27T11:02:30.082Z,11872
2018-08-27T11:03:30.066Z,11820
2018-08-27T11:04:29.549Z,11868
2018-08-27T11:05:30.120Z,11924
2018-08-27T11:06:29.820Z,11916
2018-08-27T11:07:29.839Z,11736
2018-08-27T11:08:29.825Z,11364
2018-08-27T11:09:29.577Z,10792
2018-08-27T11:10:29.901Z,10212
2018-08-27T11:11:29.601Z,9780
2018-08-27T11:12:29.878Z,9548
2018-08-27T11:13:29.856Z,9408
2018-08-27T11:14:30.146Z,9484
2018-08-27T11:15:29.618Z,9684
2018-08-27T11:16:30.134Z,9700
2018-08-27T11:17:29.887Z,9740
2018-08-27T11:18:29.607Z,10064
2018-08-27T11:19:30.074Z,10440
2018-08-27T11:20:31.255Z,10480
2018-08-27T11:21:29.617Z,11140
2018-08-27T11:22:30.150Z,11176
2018-08-27T11:23:29.625Z,10676
2018-08-27T11:24:30.152Z,10124
2018-08-27T11:25:29.971Z,10200
2018-08-27T11:26:29.911Z,9912
2018-08-27T11:27:29.661Z,9756
2018-08-27T11:28:30.185Z,10088
2018-08-27T11:29:29.940Z,10508
2018-08-27T11:30:29.799Z,10428
2018-08-27T11:31:29.691Z,10848
2018-08-27T11:32:29.693Z,11640
2018-08-27T11:33:29.673Z,12500
2018-08-27T11:34:29.925Z,13532
2018-08-27T11:35:29.440Z,13512
2018-08-27T11:36:29.943Z,12824
2018-08-27T11:37:30.210Z,12196
2018-08-27T11:38:29.958Z,11400
2018-08-27T11:39:30.010Z,11120
2018-08-27T11:40:30.254Z,11304
2018-08-27T11:41:29.723Z,11760
2018-08-27T11:42:30.236Z,12220
2018-08-27T11:43:30.638Z,12272
2018-08-27T11:44:29.737Z,12336
2018-08-27T11:45:30.262Z,12356
2018-08-27T11:46:29.759Z,12064
2018-08-27T11:47:30.016Z,12024
2018-08-27T11:48:30.265Z,12284
2018-08-27T11:49:30.033Z,12700
2018-08-27T11:50:30.056Z,12816
2018-08-27T11:51:31.915Z,12412
2018-08-27T11:52:29.774Z,11776
2018-08-27T11:53:29.800Z,11200
2018-08-27T11:54:30.079Z,11136
2018-08-27T11:55:29.581Z,11288
2018-08-27T11:56:30.048Z,11284
2018-08-27T11:57:29.535Z,11252
2018-08-27T11:58:30.576Z,11160
2018-08-27T11:59:29.866Z,11176
2018-08-27T12:00:29.865Z,11368
2018-08-27T12:01:29.851Z,11552
2018-08-27T12:02:30.073Z,11508
2018-08-27T12:03:30.338Z,11520
2018-08-27T12:04:30.356Z,11664
2018-08-27T12:05:30.375Z,11956
2018-08-27T12:06:30.078Z,12028
2018-08-27T12:07:29.839Z,11464
2018-08-27T12:08:30.123Z,10456
2018-08-27T12:09:30.133Z,9420
2018-08-27T12:10:29.959Z,8552
2018-08-27T12:11:30.113Z,8060
2018-08-27T12:12:30.114Z,7980
2018-08-27T12:13:30.120Z,8040
2018-08-27T12:14:30.129Z,7976
2018-08-27T12:15:30.390Z,7884
2018-08-27T12:16:30.385Z,7900
2018-08-27T12:17:30.128Z,8040
2018-08-27T12:18:29.912Z,8196
2018-08-27T12:19:29.909Z,8400
2018-08-27T12:20:30.196Z,8528
2018-08-27T12:21:31.748Z,8560
2018-08-27T12:22:29.660Z,8704
2018-08-27T12:23:30.196Z,9084
2018-08-27T12:24:30.195Z,9620
2018-08-27T12:25:30.196Z,10136
2018-08-27T12:26:30.194Z,10556
2018-08-27T12:27:29.961Z,11084
2018-08-27T12:28:30.174Z,11564
2018-08-27T12:29:30.186Z,11832
2018-08-27T12:30:30.484Z,11824
2018-08-27T12:31:29.956Z,11556
2018-08-27T12:32:30.194Z,11464
2018-08-27T12:33:30.202Z,11696
2018-08-27T12:34:30.210Z,12040
2018-08-27T12:35:30.221Z,12384
2018-08-27T12:36:30.469Z,12676
2018-08-27T12:37:29.960Z,12872
2018-08-27T12:38:30.222Z,12336
2018-08-27T12:39:30.227Z,11552
2018-08-27T12:40:30.761Z,10764
2018-08-27T12:41:30.065Z,10540
2018-08-27T12:42:30.248Z,10664
2018-08-27T12:43:30.643Z,10892
2018-08-27T12:44:30.009Z,11356
2018-08-27T12:45:29.759Z,11976
2018-08-27T12:46:30.285Z,12004
2018-08-27T12:47:30.265Z,11392
2018-08-27T12:48:30.532Z,11468
2018-08-27T12:49:29.762Z,11112
2018-08-27T12:50:30.025Z,10792
2018-08-27T12:51:30.954Z,10460
2018-08-27T12:52:30.541Z,10096
2018-08-27T12:53:30.303Z,9952
2018-08-27T12:54:30.032Z,9764
2018-08-27T12:55:30.326Z,9640
2018-08-27T12:56:30.333Z,9584
2018-08-27T12:57:30.077Z,9524
2018-08-27T12:58:30.224Z,9712
2018-08-27T12:59:30.331Z,10164
2018-08-27T13:00:30.104Z,10408
2018-08-27T13:01:30.079Z,10508
2018-08-27T13:02:30.064Z,10468
2018-08-27T13:03:30.334Z,10472
2018-08-27T13:04:30.350Z,10684
2018-08-27T13:05:30.670Z,10856
2018-08-27T13:06:30.349Z,10824
2018-08-27T13:07:30.114Z,10556
2018-08-27T13:08:30.615Z,10196
2018-08-27T13:09:30.357Z,9976
2018-08-27T13:10:30.610Z,10052
2018-08-27T13:11:30.799Z,10144
2018-08-27T13:12:30.643Z,10160
2018-08-27T13:13:30.443Z,10044
2018-08-27T13:14:30.130Z,9772
2018-08-27T13:15:30.698Z,9576
2018-08-27T13:16:30.397Z,9572
2018-08-27T13:17:30.660Z,9400
2018-08-27T13:18:30.148Z,9100
2018-08-27T13:19:29.927Z,8916
2018-08-27T13:20:30.409Z,8992
2018-08-27T13:21:30.404Z,9180
2018-08-27T13:22:30.160Z,9464
2018-08-27T13:23:30.723Z,9808
2018-08-27T13:24:30.706Z,10212
2018-08-27T13:25:30.447Z,10492
2018-08-27T13:26:29.931Z,10588
2018-08-27T13:27:30.172Z,10484
2018-08-27T13:28:30.176Z,10400
2018-08-27T13:29:30.441Z,10276
2018-08-27T13:30:31.002Z,10160
2018-08-27T13:31:30.836Z,10088
2018-08-27T13:32:30.468Z,10160
2018-08-27T13:33:30.476Z,10116
2018-08-27T13:34:30.202Z,9972
2018-08-27T13:35:30.536Z,9876
2018-08-27T13:36:30.215Z,9960
2018-08-27T13:37:30.215Z,10152
2018-08-27T13:38:30.478Z,10336
2018-08-27T13:39:30.489Z,10436
2018-08-27T13:40:30.626Z,10460